Time;durP1;ratioP1;P1;durP2;ratioP2;P2;SDS_P1;SDS_P2;PMS_P1;PMS_P2;Temp;Humidity;BMP_temperature;BMP_pressure;BME280_temperature;BME280_humidity;BME280_pressure;Samples;Min_cycle;Max_cycle;Signal;HPM_P1;HPM_P2
2021/11/05 00:00:33;;;;;;;1.35;1.00;;;20.60;47.00;;;24.90;30.63;100668.84;5014617;28;20103;-10
2021/11/05 00:03:00;;;;;;;1.55;1.25;;;20.60;47.00;;;24.89;30.68;100677.88;5032657;28;20050;-10
2021/11/05 00:05:30;;;;;;;1.25;1.17;;;20.60;46.90;;;24.87;30.46;100677.13;5032661;28;20499;-10
2021/11/05 00:07:57;;;;;;;1.42;1.20;;;20.60;46.90;;;24.91;30.71;100675.91;5032759;28;20053;-10
2021/11/05 00:10:23;;;;;;;2.47;1.30;;;20.60;47.00;;;24.87;30.61;100674.44;5032689;28;20084;-10
2021/11/05 00:12:50;;;;;;;1.55;1.30;;;20.60;47.00;;;24.89;30.58;100682.34;5014639;28;20478;-10
2021/11/05 00:15:17;;;;;;;2.00;1.20;;;20.60;47.00;;;24.86;30.45;100683.47;5032518;28;20069;-10
2021/11/05 00:17:43;;;;;;;1.38;1.27;;;20.60;47.00;;;24.87;30.44;100681.63;5015099;28;20115;-10
2021/11/05 00:20:11;;;;;;;1.80;1.20;;;20.60;47.00;;;24.89;30.57;100679.69;5032478;28;20103;-10
2021/11/05 00:22:37;;;;;;;1.27;1.20;;;20.60;47.00;;;24.85;30.62;100684.44;5032702;28;20550;-10
2021/11/05 00:25:07;;;;;;;1.17;1.15;;;20.60;47.00;;;24.86;30.63;100691.50;5032426;28;20083;-10
2021/11/05 00:27:36;;;;;;;1.17;1.08;;;20.60;47.00;;;24.88;30.79;100694.03;5032420;28;20056;-10
2021/11/05 00:30:05;;;;;;;1.30;1.20;;;20.70;46.90;;;24.87;30.50;100693.16;5032285;28;20056;-10
2021/11/05 00:32:31;;;;;;;1.30;1.20;;;20.70;46.90;;;24.85;30.62;100695.13;5032267;28;20042;-10
2021/11/05 00:34:56;;;;;;;1.33;1.23;;;20.70;46.90;;;24.86;30.55;100698.63;5032356;28;20096;-10
2021/11/05 00:37:22;;;;;;;1.00;1.00;;;20.70;46.80;;;24.88;30.64;100710.94;5032297;28;20430;-10
2021/11/05 00:39:48;;;;;;;1.40;1.20;;;20.70;46.80;;;24.88;30.62;100718.94;5032258;28;20096;-9
2021/11/05 00:42:14;;;;;;;1.30;1.20;;;20.80;46.80;;;24.89;30.54;100717.13;5032234;28;20060;-10
2021/11/05 00:44:39;;;;;;;1.80;1.27;;;20.70;46.80;;;24.90;30.65;100718.84;5032229;28;20050;-9
2021/11/05 00:47:05;;;;;;;1.05;1.05;;;20.70;46.90;;;24.88;30.62;100724.31;5031983;28;20061;-10
2021/11/05 00:49:32;;;;;;;1.20;1.10;;;20.70;46.90;;;24.85;30.72;100723.72;5031996;28;20124;-10
2021/11/05 00:51:57;;;;;;;1.10;1.00;;;20.70;47.00;;;24.86;30.76;100734.28;5030636;28;20099;-10
2021/11/05 00:54:24;;;;;;;1.02;0.95;;;20.60;47.00;;;24.84;30.70;100735.38;5032123;28;20057;-10
2021/11/05 00:56:49;;;;;;;1.20;1.10;;;20.60;47.00;;;24.85;30.63;100743.25;5032504;28;20080;-10
2021/11/05 00:59:15;;;;;;;1.15;1.05;;;20.60;47.00;;;24.85;30.57;100737.06;5031994;28;20049;-10
2021/11/05 01:01:41;;;;;;;1.23;1.13;;;20.60;47.00;;;24.84;30.69;100738.91;5032290;28;20049;-10
2021/11/05 01:04:07;;;;;;;1.35;1.10;;;20.60;46.90;;;24.86;30.71;100747.66;5031914;28;20046;-10
2021/11/05 01:06:32;;;;;;;1.52;1.42;;;20.60;47.00;;;24.83;30.74;100745.22;5031922;28;20061;-10
2021/11/05 01:08:58;;;;;;;1.38;1.20;;;20.60;46.90;;;24.82;30.72;100748.84;5032995;28;20057;-10
2021/11/05 01:11:24;;;;;;;2.05;1.40;;;20.60;47.00;;;24.84;30.70;100749.59;5035309;28;20061;-10
2021/11/05 01:13:50;;;;;;;1.63;1.20;;;20.60;47.00;;;24.85;30.72;100756.63;5035112;28;20057;-10
2021/11/05 01:16:16;;;;;;;1.73;1.40;;;20.60;46.90;;;24.85;30.65;100758.47;5035263;28;20045;-10
2021/11/05 01:18:42;;;;;;;1.13;0.88;;;20.60;47.00;;;24.86;30.64;100762.81;5035069;28;20052;-10
2021/11/05 01:21:08;;;;;;;1.92;1.38;;;20.60;47.00;;;24.85;30.56;100759.31;5034977;28;20054;-10
2021/11/05 01:23:33;;;;;;;1.67;1.30;;;20.60;47.00;;;24.84;30.66;100764.78;5035580;28;20049;-10
2021/11/05 01:25:59;;;;;;;1.02;1.00;;;20.70;46.90;;;24.85;30.67;100759.31;5035682;28;20390;-9
2021/11/05 01:28:25;;;;;;;1.38;1.27;;;20.70;46.90;;;24.83;30.66;100766.63;5034855;28;20199;-10
2021/11/05 01:30:51;;;;;;;1.20;1.10;;;20.60;46.90;;;24.84;30.73;100762.97;5035011;28;20486;-10
2021/11/05 01:33:17;;;;;;;1.13;1.02;;;20.70;46.90;;;24.83;30.56;100769.28;5034813;28;20053;-10
2021/11/05 01:35:44;;;;;;;1.50;1.27;;;20.60;46.80;;;24.86;30.66;100777.06;5035235;28;20121;-10
2021/11/05 01:38:10;;;;;;;1.48;1.38;;;20.70;47.20;;;24.85;30.75;100779.88;5035259;28;20051;-10
2021/11/05 01:40:42;;;;;;;1.10;1.00;;;20.70;46.90;;;24.82;30.52;100780.94;5035051;28;20053;-10
2021/11/05 01:43:09;;;;;;;1.10;1.00;;;20.80;46.70;;;24.84;30.58;100786.19;5034861;28;20049;-10
2021/11/05 01:45:35;;;;;;;1.00;1.00;;;20.90;46.50;;;24.86;30.62;100787.75;5035338;28;20053;-10
2021/11/05 01:48:01;;;;;;;1.27;1.08;;;20.90;46.30;;;24.88;30.49;100790.31;5034660;28;20049;-10
2021/11/05 01:50:28;;;;;;;1.17;1.08;;;20.90;46.20;;;24.84;30.60;100783.50;5034641;28;20046;-10
2021/11/05 01:52:55;;;;;;;1.20;1.10;;;21.00;46.20;;;24.86;30.62;100789.56;5034535;28;20481;-10
2021/11/05 01:55:22;;;;;;;1.10;1.10;;;20.90;46.20;;;24.83;30.42;100796.03;5034674;28;20049;-10
2021/11/05 01:57:48;;;;;;;1.60;1.25;;;20.90;46.50;;;24.88;30.50;100809.03;5034857;28;20061;-10
2021/11/05 02:00:19;;;;;;;1.20;1.10;;;20.80;46.50;;;24.84;30.66;100808.44;5034547;28;20087;-9
2021/11/05 02:02:46;;;;;;;1.02;0.98;;;20.70;46.60;;;24.86;30.56;100813.63;5034886;28;20111;-10
2021/11/05 02:05:13;;;;;;;1.50;1.13;;;20.70;46.70;;;24.86;30.69;100819.00;5034491;28;20387;-10
2021/11/05 02:07:46;;;;;;;1.27;1.17;;;20.70;46.70;;;24.85;30.50;100819.97;5034240;28;20504;-10
2021/11/05 02:10:13;;;;;;;1.25;1.15;;;20.70;46.70;;;24.82;30.50;100817.53;5032974;28;20501;-10
2021/11/05 02:12:39;;;;;;;1.48;1.35;;;20.80;46.40;;;24.83;30.71;100824.59;5034238;28;20061;-10
2021/11/05 02:15:07;;;;;;;0.88;0.88;;;20.80;46.50;;;24.84;30.63;100839.66;5034324;28;20053;-10
2021/11/05 02:17:35;;;;;;;1.38;1.27;;;20.90;46.50;;;24.81;30.50;100824.72;5034237;28;20425;-10
2021/11/05 02:20:05;;;;;;;1.48;1.15;;;20.90;46.30;;;24.81;30.61;100824.72;5015824;28;20072;-10
2021/11/05 02:22:31;;;;;;;1.10;1.00;;;20.90;46.10;;;24.82;30.63;100833.59;5034178;28;20866;-10
2021/11/05 02:24:57;;;;;;;1.55;1.33;;;20.90;46.30;;;24.83;30.52;100830.78;5034086;28;20049;-10
2021/11/05 02:27:23;;;;;;;1.65;1.05;;;20.80;46.40;;;24.84;30.60;100826.28;5034461;28;20057;-10
2021/11/05 02:29:48;;;;;;;1.20;1.10;;;20.90;46.30;;;24.83;30.54;100833.47;5033999;28;20095;-10
2021/11/05 02:32:14;;;;;;;2.30;1.27;;;20.90;46.20;;;24.86;30.64;100835.91;5034191;28;20053;-10
2021/11/05 02:34:41;;;;;;;1.17;1.10;;;21.00;46.20;;;24.85;30.57;100836.03;5034583;28;20059;-10
2021/11/05 02:37:06;;;;;;;1.40;1.30;;;20.90;46.30;;;24.83;30.62;100828.13;5033934;28;20477;-10
2021/11/05 02:39:34;;;;;;;1.17;1.10;;;20.90;46.40;;;24.85;30.61;100842.22;5033980;28;20056;-10
2021/11/05 02:42:01;;;;;;;1.20;1.10;;;20.80;46.50;;;24.81;30.68;100838.09;5033923;28;20053;-10
2021/11/05 02:44:29;;;;;;;1.30;1.20;;;20.80;46.50;;;24.81;30.65;100842.56;5034187;28;20050;-9
2021/11/05 02:46:55;;;;;;;1.25;1.08;;;20.80;46.60;;;24.82;30.57;100846.97;5034435;28;20052;-10
2021/11/05 02:49:22;;;;;;;1.77;1.30;;;20.80;46.40;;;24.82;30.66;100852.31;5033670;28;20600;-10
2021/11/05 02:51:50;;;;;;;1.25;1.10;;;20.80;46.40;;;24.83;30.57;100856.69;5033698;28;20517;-10
2021/11/05 02:54:17;;;;;;;1.15;1.02;;;20.90;46.40;;;24.84;30.69;100867.28;5033719;28;20037;-10
2021/11/05 02:56:43;;;;;;;1.23;1.00;;;20.90;46.20;;;24.83;30.72;100867.41;5033378;28;20478;-10
2021/11/05 02:59:09;;;;;;;1.20;1.10;;;21.00;46.10;;;24.82;30.65;100871.03;5033160;28;20123;-10
2021/11/05 03:01:36;;;;;;;1.13;1.02;;;21.00;46.10;;;24.84;30.55;100874.44;5033592;28;20057;-10
2021/11/05 03:04:08;;;;;;;1.40;1.30;;;21.00;46.10;;;24.83;30.61;100876.25;5033627;28;20548;-10
2021/11/05 03:06:37;;;;;;;1.13;1.02;;;20.90;46.10;;;24.83;30.66;100875.41;5033174;28;20104;-10
2021/11/05 03:09:10;;;;;;;1.50;1.27;;;20.80;46.40;;;24.82;30.79;100879.03;5031986;28;20084;-10
2021/11/05 03:11:37;;;;;;;1.35;1.25;;;20.70;46.60;;;24.82;30.56;100877.22;5033472;28;20115;-10
2021/11/05 03:14:04;;;;;;;1.08;1.08;;;20.70;46.80;;;24.82;30.57;100889.75;5032979;28;20095;-10
2021/11/05 03:16:30;;;;;;;1.83;1.30;;;20.60;46.80;;;24.80;30.68;100887.19;5033108;28;20054;-10
2021/11/05 03:18:56;;;;;;;1.42;1.33;;;20.60;46.80;;;24.76;30.63;100889.25;5032953;28;20068;-10
2021/11/05 03:21:21;;;;;;;1.27;1.05;;;20.60;46.90;;;24.80;30.76;100897.88;5033217;28;20053;-9
2021/11/05 03:23:47;;;;;;;1.20;1.10;;;20.60;46.80;;;24.76;30.79;100897.28;5032027;28;20056;-10
2021/11/05 03:26:13;;;;;;;1.20;1.10;;;20.60;46.90;;;24.77;30.68;100901.66;5033159;28;20050;-10
2021/11/05 03:28:39;;;;;;;1.10;1.00;;;20.60;47.00;;;24.78;30.62;100911.38;5033090;28;20094;-10
2021/11/05 03:31:04;;;;;;;1.17;1.08;;;20.60;46.90;;;24.77;30.60;100912.38;5033502;28;20512;-9
2021/11/05 03:33:30;;;;;;;1.63;1.27;;;20.60;46.90;;;24.81;30.49;100920.13;5032228;28;20478;-10
2021/11/05 03:35:56;;;;;;;1.20;1.10;;;20.60;46.80;;;24.81;30.73;100925.47;5033380;28;20045;-10
2021/11/05 03:38:22;;;;;;;1.40;1.30;;;20.60;46.90;;;24.80;30.57;100921.94;5033249;28;20393;-10
2021/11/05 03:40:48;;;;;;;1.23;1.13;;;20.60;46.90;;;24.83;30.70;100923.56;5033088;28;20053;-10
2021/11/05 03:43:14;;;;;;;1.10;1.00;;;20.70;46.90;;;24.80;30.63;100921.13;5032923;28;20481;-10
2021/11/05 03:45:40;;;;;;;1.20;1.10;;;20.60;46.80;;;24.84;30.68;100919.88;5033176;28;20073;-10
2021/11/05 03:48:05;;;;;;;1.20;1.10;;;20.70;46.90;;;24.82;30.68;100928.03;5032773;28;20052;-10
2021/11/05 03:50:31;;;;;;;1.30;1.20;;;20.60;46.80;;;24.87;30.73;100933.88;5033192;28;20045;-10
2021/11/05 03:52:57;;;;;;;1.20;1.10;;;20.60;46.80;;;24.85;30.70;100941.16;5032758;28;20081;-10
2021/11/05 03:55:23;;;;;;;1.52;1.23;;;20.70;46.70;;;24.87;30.55;100925.84;5032705;28;20053;-10
2021/11/05 03:57:48;;;;;;;1.20;1.10;;;20.70;46.60;;;24.91;30.69;100943.38;5032791;28;20046;-10
2021/11/05 04:00:15;;;;;;;1.35;1.23;;;20.80;46.60;;;24.91;30.65;100946.06;5032735;28;20106;-10
2021/11/05 04:02:41;;;;;;;1.00;1.00;;;20.80;46.50;;;24.93;30.74;100944.09;5032898;28;20489;-10
2021/11/05 04:05:07;;;;;;;1.17;1.08;;;20.90;46.60;;;24.96;30.65;100941.19;5033193;28;20091;-9
2021/11/05 04:07:33;;;;;;;1.30;1.20;;;20.90;46.50;;;24.98;30.56;100950.94;5032669;28;20132;-10
2021/11/05 04:09:59;;;;;;;1.08;0.98;;;20.90;46.40;;;25.02;30.46;100965.75;5032586;28;20049;-10
2021/11/05 04:12:25;;;;;;;0.98;0.98;;;20.90;46.40;;;24.99;30.50;100966.84;5032463;28;20052;-10
2021/11/05 04:14:50;;;;;;;1.10;1.02;;;20.90;46.40;;;25.04;30.57;100972.72;5032612;28;20397;-10
2021/11/05 04:17:17;;;;;;;1.25;1.15;;;20.90;46.40;;;25.06;30.56;100978.78;5031000;28;20497;-10
2021/11/05 04:19:43;;;;;;;0.90;0.90;;;20.90;46.40;;;25.06;30.54;100984.13;5032500;28;20478;-10
2021/11/05 04:22:09;;;;;;;1.23;1.10;;;20.90;46.40;;;25.05;30.39;100982.41;5032380;28;20041;-10
2021/11/05 04:24:35;;;;;;;1.10;1.00;;;20.90;46.20;;;25.06;30.33;100977.91;5032450;28;20088;-10
2021/11/05 04:27:01;;;;;;;1.00;0.90;;;20.90;46.30;;;25.09;30.24;100991.94;5032622;28;20050;-10
2021/11/05 04:29:27;;;;;;;1.45;1.35;;;20.90;46.20;;;25.07;30.40;100991.16;5032793;28;20119;-10
2021/11/05 04:31:54;;;;;;;1.10;1.00;;;20.90;46.20;;;25.11;30.28;100999.84;5032641;28;20489;-10
2021/11/05 04:34:19;;;;;;;1.20;1.10;;;21.00;46.10;;;25.12;30.37;100994.34;5032267;28;20132;-10
2021/11/05 04:36:46;;;;;;;1.15;1.08;;;20.90;46.10;;;25.13;30.32;101003.25;5032326;28;20061;-10
2021/11/05 04:39:16;;;;;;;1.10;1.00;;;21.00;46.10;;;25.09;30.17;101002.63;5032269;28;20467;-10
2021/11/05 04:41:43;;;;;;;0.98;0.98;;;20.90;46.00;;;25.13;30.35;101008.59;5032116;28;20493;-10
2021/11/05 04:44:09;;;;;;;1.30;1.20;;;21.00;46.00;;;25.13;30.11;101012.13;5033837;28;20048;-10
2021/11/05 04:46:35;;;;;;;1.38;1.27;;;21.00;46.10;;;25.15;29.85;101020.03;5017167;28;20479;-10
2021/11/05 04:49:01;;;;;;;1.30;1.20;;;20.90;46.00;;;25.13;30.13;101022.81;5035456;28;20050;-10
2021/11/05 04:51:27;;;;;;;0.90;0.90;;;20.90;46.00;;;25.12;30.35;101022.94;5035581;28;20132;-10
2021/11/05 04:53:52;;;;;;;1.38;1.27;;;20.90;46.00;;;25.15;30.05;101036.06;5035783;28;20053;-10
2021/11/05 04:56:18;;;;;;;0.90;0.90;;;20.90;46.00;;;25.15;30.10;101047.63;5035159;28;20056;-10
2021/11/05 04:58:44;;;;;;;1.10;1.00;;;21.00;46.00;;;25.13;30.04;101038.03;5035576;28;20072;-10
2021/11/05 05:01:10;;;;;;;0.90;0.90;;;21.00;46.00;;;25.14;30.21;101047.75;5035762;28;20045;-10
2021/11/05 05:03:37;;;;;;;1.08;0.95;;;21.00;46.00;;;25.17;30.03;101050.19;5035428;28;20480;-10
2021/11/05 05:06:03;;;;;;;1.33;1.10;;;20.90;46.00;;;25.17;30.06;101054.69;5035736;28;20387;-10
2021/11/05 05:08:28;;;;;;;1.45;1.15;;;21.00;46.00;;;25.17;30.03;101049.34;5035347;28;20492;-10
2021/11/05 05:10:54;;;;;;;1.40;1.30;;;21.00;45.90;;;25.18;30.17;101059.09;5035318;28;20096;-9
2021/11/05 05:13:20;;;;;;;1.55;1.20;;;21.00;45.90;;;25.17;30.09;101062.72;5035533;28;20050;-10
2021/11/05 05:15:46;;;;;;;2.13;1.08;;;21.00;46.00;;;25.14;30.00;101058.44;5035432;28;20064;-11
2021/11/05 05:18:15;;;;;;;1.52;1.30;;;20.90;46.00;;;25.13;30.05;101068.31;5035196;28;20114;-10
2021/11/05 05:20:43;;;;;;;1.10;1.00;;;20.90;46.00;;;25.14;30.01;101063.78;5035202;28;20081;-10
2021/11/05 05:23:10;;;;;;;1.00;0.90;;;20.90;46.00;;;25.12;30.11;101068.41;5035472;28;20041;-10
2021/11/05 05:25:37;;;;;;;1.20;1.10;;;20.90;46.00;;;25.14;30.18;101074.50;5035454;28;20045;-10
2021/11/05 05:28:03;;;;;;;1.00;0.90;;;20.90;46.10;;;25.13;30.04;101078.16;5017125;28;20053;-11
2021/11/05 05:30:29;;;;;;;0.95;0.93;;;20.90;46.10;;;25.11;30.19;101077.44;5035319;28;20049;-10
2021/11/05 05:32:55;;;;;;;1.25;1.15;;;20.90;46.20;;;25.14;30.00;101083.41;5034990;28;20046;-10
2021/11/05 05:35:22;;;;;;;1.17;1.08;;;20.90;46.10;;;25.10;30.06;101081.91;5035068;28;20045;-10
2021/11/05 05:37:48;;;;;;;0.80;0.80;;;20.90;46.10;;;25.12;30.18;101079.13;5035231;28;20409;-10
2021/11/05 05:40:15;;;;;;;0.90;0.90;;;20.90;46.10;;;25.13;30.07;101092.38;5034808;28;20049;-9
2021/11/05 05:42:42;;;;;;;1.00;1.00;;;20.90;46.10;;;25.17;30.28;101092.16;5033619;28;20563;-10
2021/11/05 05:45:09;;;;;;;0.77;0.77;;;20.90;46.10;;;25.15;30.31;101093.09;5034884;28;20054;-10
2021/11/05 05:47:36;;;;;;;0.90;0.90;;;20.90;46.10;;;25.14;30.15;101099.44;5034630;28;20050;-10
2021/11/05 05:50:11;;;;;;;1.10;1.00;;;20.90;46.10;;;25.17;30.11;101105.53;5034714;28;20068;-10
2021/11/05 05:52:37;;;;;;;1.60;1.20;;;20.90;46.10;;;25.13;30.16;101099.56;5034693;28;20128;-10
2021/11/05 05:55:06;;;;;;;1.95;0.90;;;20.90;46.10;;;25.13;30.01;101108.44;5033598;28;20058;-10
2021/11/05 05:57:32;;;;;;;0.90;0.90;;;20.90;46.10;;;25.16;30.02;101120.75;5034534;28;20050;-9
2021/11/05 05:59:58;;;;;;;2.00;1.00;;;20.90;46.10;;;25.19;30.04;101133.03;5034518;28;20045;-9
2021/11/05 06:02:27;;;;;;;1.00;0.90;;;20.90;46.10;;;25.17;30.11;101130.47;5034605;28;20042;-10
2021/11/05 06:04:53;;;;;;;0.98;0.98;;;20.90;46.10;;;25.14;30.30;101133.34;5034458;28;20052;-10
2021/11/05 06:07:19;;;;;;;1.10;1.00;;;20.90;46.10;;;25.17;30.15;101141.16;5016559;28;20085;-10
2021/11/05 06:09:45;;;;;;;1.20;1.10;;;20.90;46.10;;;25.14;30.06;101138.72;5034354;28;20448;-10
2021/11/05 06:12:11;;;;;;;1.45;1.35;;;20.90;46.10;;;25.12;30.21;101144.19;5034493;28;20095;-10
2021/11/05 06:14:36;;;;;;;1.52;1.10;;;20.90;46.10;;;25.17;30.18;101161.72;5034396;28;20053;-10
2021/11/05 06:17:03;;;;;;;1.23;1.10;;;20.90;46.10;;;25.13;30.21;101153.09;5034344;28;20056;-9
2021/11/05 06:19:30;;;;;;;1.13;0.93;;;20.90;46.10;;;25.12;30.19;101152.19;5034258;28;20045;-10
2021/11/05 06:21:57;;;;;;;1.27;1.17;;;20.90;46.10;;;25.14;30.15;101166.34;5034282;28;20050;-10
2021/11/05 06:24:24;;;;;;;1.10;1.10;;;20.90;46.10;;;25.14;30.19;101166.34;5034490;28;20063;-10
2021/11/05 06:26:53;;;;;;;1.35;1.25;;;20.90;46.10;;;25.14;30.24;101166.34;5034453;28;20103;-10
2021/11/05 06:29:19;;;;;;;1.20;1.10;;;20.90;46.10;;;25.16;30.01;101171.59;5034072;28;20049;-10
2021/11/05 06:31:45;;;;;;;2.53;1.10;;;20.90;46.10;;;25.14;29.96;101169.03;5034338;28;20045;-10
2021/11/05 06:34:11;;;;;;;3.00;1.65;;;20.90;46.00;;;25.15;30.16;101176.06;5033677;28;20131;-9
2021/11/05 06:36:37;;;;;;;1.20;1.00;;;20.90;46.20;;;25.14;30.13;101176.19;5034133;28;20056;-9
2021/11/05 06:39:04;;;;;;;1.10;1.00;;;21.00;46.30;;;25.19;30.11;101186.53;5033727;28;20096;-10
2021/11/05 06:41:31;;;;;;;1.10;1.00;;;21.00;46.10;;;25.21;30.06;101187.28;5031797;28;20053;-10
2021/11/05 06:43:57;;;;;;;1.00;1.00;;;21.00;46.10;;;25.20;30.11;101185.59;5033841;28;20543;-10
2021/11/05 06:46:23;;;;;;;1.48;1.15;;;21.00;46.10;;;25.20;30.07;101194.47;5033453;28;20062;-10
2021/11/05 06:48:49;;;;;;;1.08;1.00;;;21.00;46.00;;;25.20;30.00;101196.28;5034243;28;20100;-10
2021/11/05 06:51:15;;;;;;;1.30;1.20;;;21.00;46.00;;;25.20;29.99;101197.13;5033925;28;20049;-9
2021/11/05 06:53:42;;;;;;;1.25;1.15;;;21.00;46.00;;;25.22;29.93;101205.06;5033697;28;20046;-9
2021/11/05 06:56:08;;;;;;;0.98;0.90;;;21.00;46.00;;;25.20;30.02;101205.16;5033625;28;20046;-10
2021/11/05 06:58:36;;;;;;;0.90;0.90;;;21.00;46.00;;;25.22;30.02;101210.41;5033654;28;20059;-10
2021/11/05 07:01:04;;;;;;;1.20;1.10;;;21.00;46.00;;;25.20;29.86;101218.53;5015380;28;20042;-10
2021/11/05 07:03:29;;;;;;;1.20;1.10;;;21.00;46.00;;;25.25;30.12;101220.88;5033548;28;20076;-9
2021/11/05 07:05:56;;;;;;;1.10;1.00;;;21.00;46.00;;;25.20;29.90;101215.88;5033713;28;20049;-9
2021/11/05 07:08:22;;;;;;;1.40;1.30;;;21.00;46.00;;;25.20;30.11;101218.53;5033214;28;20132;-9
2021/11/05 07:10:48;;;;;;;1.10;1.00;;;21.00;46.00;;;25.21;30.00;101227.41;5033377;28;20552;-9
2021/11/05 07:13:13;;;;;;;1.45;1.00;;;21.00;46.00;;;25.25;29.97;101234.25;5033322;28;20041;-9
2021/11/05 07:15:40;;;;;;;2.60;1.10;;;21.00;46.10;;;25.23;29.97;101231.69;5033636;28;20049;-9
2021/11/05 07:18:06;;;;;;;1.08;1.08;;;21.00;46.10;;;25.21;30.00;101233.63;5033296;28;20127;-9
2021/11/05 07:20:33;;;;;;;1.70;1.00;;;21.00;46.10;;;25.23;29.98;101233.53;5033336;28;20049;-9
2021/11/05 07:23:00;;;;;;;2.03;1.30;;;21.00;46.00;;;25.24;29.98;101246.81;5033402;28;20049;-9
2021/11/05 07:25:26;;;;;;;1.30;1.10;;;21.00;46.00;;;25.28;30.07;101248.31;5033178;28;20057;-10
2021/11/05 07:27:52;;;;;;;0.90;0.90;;;21.10;46.00;;;25.27;30.09;101243.91;5033555;28;20883;-9
2021/11/05 07:30:18;;;;;;;1.42;1.10;;;21.10;45.80;;;25.35;30.02;101259.41;5033023;28;20103;-9
2021/11/05 07:32:45;;;;;;;1.20;1.00;;;21.20;45.80;;;25.36;30.06;101258.44;5033106;28;20049;-9
2021/11/05 07:35:13;;;;;;;2.05;1.10;;;21.30;45.70;;;25.41;29.98;101263.44;5033099;28;20060;-9
2021/11/05 07:37:39;;;;;;;1.70;1.25;;;21.30;45.60;;;25.42;29.89;101254.44;5033495;28;20050;-9
2021/11/05 07:40:08;;;;;;;2.70;1.10;;;21.30;45.50;;;25.47;30.08;101265.66;5033031;28;20080;-9
2021/11/05 07:42:36;;;;;;;1.10;1.00;;;21.40;45.50;;;25.46;29.95;101262.13;5033007;28;20122;-9
2021/11/05 07:45:04;;;;;;;1.27;1.17;;;21.40;45.50;;;25.51;29.85;101267.16;5032948;28;20053;-9
2021/11/05 07:47:29;;;;;;;1.33;1.20;;;21.40;45.50;;;25.50;29.79;101270.78;5031541;28;20514;-9
2021/11/05 07:49:56;;;;;;;2.90;1.20;;;21.40;45.50;;;25.51;29.79;101277.88;5032996;28;20050;-9
2021/11/05 07:52:21;;;;;;;1.10;1.08;;;21.40;45.50;;;25.53;29.68;101294.66;5033057;28;20045;-9
2021/11/05 07:54:47;;;;;;;1.92;1.42;;;21.30;45.60;;;25.55;29.80;101291.88;5033492;28;20116;-9
2021/11/05 07:57:14;;;;;;;1.50;1.23;;;21.30;45.50;;;25.51;29.67;101294.78;5032602;28;20053;-9
2021/11/05 07:59:40;;;;;;;1.25;1.10;;;21.30;45.60;;;25.51;29.74;101293.94;5032781;28;20067;-9
2021/11/05 08:02:06;;;;;;;1.77;1.20;;;21.30;45.60;;;25.50;29.89;101298.41;5032746;28;20405;-9
2021/11/05 08:04:33;;;;;;;1.48;1.33;;;21.30;45.70;;;25.48;29.79;101307.53;5032973;28;20136;-9
2021/11/05 08:06:59;;;;;;;1.20;1.10;;;21.30;45.70;;;25.52;29.83;101319.72;5032873;28;20489;-9
2021/11/05 08:09:24;;;;;;;2.92;1.30;;;21.30;45.70;;;25.53;29.86;101326.78;5032609;28;20060;-9
2021/11/05 08:11:50;;;;;;;1.85;1.20;;;21.30;45.70;;;25.51;29.84;101329.59;5032960;28;20088;-9
2021/11/05 08:14:16;;;;;;;1.30;1.20;;;21.30;45.70;;;25.48;29.67;101318.25;5031702;28;20452;-9
2021/11/05 08:16:42;;;;;;;1.58;1.10;;;21.20;45.70;;;25.51;29.83;101339.44;5013859;28;20053;-8
2021/11/05 08:19:08;;;;;;;2.45;1.05;;;21.30;45.80;;;25.46;29.74;101326.41;5036383;28;20049;-9
2021/11/05 08:21:34;;;;;;;2.03;1.10;;;21.30;45.80;;;25.50;29.91;101335.06;5038950;28;20049;-9
2021/11/05 08:24:01;;;;;;;1.25;1.15;;;21.20;45.70;;;25.50;29.93;101348.44;5038905;28;20515;-9
2021/11/05 08:26:28;;;;;;;1.20;1.10;;;21.20;45.80;;;25.47;29.73;101344.16;5038810;28;20053;-9
2021/11/05 08:28:55;;;;;;;1.13;1.05;;;21.20;45.80;;;25.46;29.83;101346.94;5019178;28;20054;-9
2021/11/05 08:31:21;;;;;;;1.30;1.17;;;21.30;45.80;;;25.49;29.81;101349.38;5039260;28;20049;-9
2021/11/05 08:33:47;;;;;;;2.08;1.33;;;21.30;45.80;;;25.49;29.85;101357.44;5038877;28;20056;-9
2021/11/05 08:36:17;;;;;;;1.17;1.02;;;21.30;45.80;;;25.47;29.74;101362.03;5038837;28;20045;-9
2021/11/05 08:38:44;;;;;;;1.63;1.40;;;21.30;45.80;;;25.47;30.04;101360.22;5038856;28;20049;-9
2021/11/05 08:41:16;;;;;;;3.83;1.40;;;21.30;45.70;;;25.49;29.80;101368.13;5038920;28;20042;-9
2021/11/05 08:43:48;;;;;;;2.17;1.40;;;21.30;45.80;;;25.48;29.92;101369.97;5039504;28;20049;-8
2021/11/05 08:46:17;;;;;;;3.08;1.50;;;21.30;45.70;;;25.49;29.81;101378.84;5039029;28;20064;-9
2021/11/05 08:48:45;;;;;;;2.95;1.55;;;21.30;45.70;;;25.52;29.73;101387.50;5021306;28;20091;-9
2021/11/05 08:51:12;;;;;;;3.63;1.20;;;21.30;45.70;;;25.50;29.82;101381.41;5038822;28;20060;-9
2021/11/05 08:53:39;;;;;;;4.45;1.45;;;21.30;45.70;;;25.49;29.81;101386.88;5038725;28;20180;-9
2021/11/05 08:56:05;;;;;;;4.10;1.45;;;21.30;45.70;;;25.50;29.77;101391.28;5038698;28;20409;-14
2021/11/05 08:58:34;;;;;;;2.75;1.10;;;21.30;45.70;;;25.50;29.82;101393.94;5038699;28;20053;-9
2021/11/05 09:01:00;;;;;;;2.80;1.27;;;21.30;45.70;;;25.53;29.61;101404.44;5038470;28;20081;-9
2021/11/05 09:03:26;;;;;;;3.58;1.67;;;21.30;45.80;;;25.48;29.72;101396.75;5038580;28;20146;-9
2021/11/05 09:05:51;;;;;;;3.28;1.50;;;21.30;45.80;;;25.47;29.74;101395.00;5038603;28;20549;-9
2021/11/05 09:08:17;;;;;;;4.50;1.55;;;21.30;45.80;;;25.48;29.79;101404.78;5038543;28;20044;-9
2021/11/05 09:10:43;;;;;;;3.45;1.90;;;21.30;45.80;;;25.48;29.89;101407.44;5038642;28;20045;-9
2021/11/05 09:13:09;;;;;;;4.15;1.88;;;21.30;45.80;;;25.52;29.84;101413.44;5038406;28;20106;-9
2021/11/05 09:15:36;;;;;;;3.58;1.80;;;21.30;45.80;;;25.49;29.89;101417.19;5037792;28;20386;-9
2021/11/05 09:18:07;;;;;;;2.03;1.35;;;21.30;45.70;;;25.53;29.76;101417.84;5038403;28;20053;-9
2021/11/05 09:20:34;;;;;;;4.53;2.03;;;21.30;45.70;;;25.54;29.80;101424.88;5038369;28;20046;-10
2021/11/05 09:23:00;;;;;;;4.50;1.77;;;21.30;45.70;;;25.51;29.69;101420.63;5038135;28;20542;-9
2021/11/05 09:25:26;;;;;;;4.22;1.52;;;21.30;45.60;;;25.54;29.99;101429.38;5038281;28;20139;-9
2021/11/05 09:27:52;;;;;;;4.82;1.70;;;21.30;45.60;;;25.56;29.76;101433.69;5037857;28;20136;-9
2021/11/05 09:30:20;;;;;;;4.93;1.73;;;21.40;45.60;;;25.58;29.80;101433.56;5036783;28;20110;-10
2021/11/05 09:32:47;;;;;;;4.82;1.50;;;21.40;45.60;;;25.56;29.68;101431.00;5034936;28;20049;-9
2021/11/05 09:35:12;;;;;;;7.47;1.95;;;21.40;45.50;;;25.59;29.64;101437.94;5034754;28;20151;-10
2021/11/05 09:37:40;;;;;;;4.05;1.67;;;21.50;45.30;;;25.62;29.75;101445.75;5034924;28;20468;-9
2021/11/05 09:40:12;;;;;;;6.80;1.77;;;21.50;45.40;;;25.62;29.74;101443.91;5034958;28;20037;-9
2021/11/05 09:42:40;;;;;;;6.03;1.65;;;21.50;45.30;;;25.63;29.73;101444.81;5035106;28;20508;-9
2021/11/05 09:45:07;;;;;;;4.25;1.63;;;21.50;45.20;;;25.63;29.70;101444.81;5034677;28;20049;-9
2021/11/05 09:47:33;;;;;;;4.75;1.85;;;21.50;45.30;;;25.67;29.68;101452.47;5034752;28;20088;-9
2021/11/05 09:49:59;;;;;;;4.13;1.85;;;21.50;45.40;;;25.68;29.62;101456.03;5017032;28;20049;-9
2021/11/05 09:52:26;;;;;;;4.47;1.85;;;21.50;45.40;;;25.63;29.72;101458.19;5034821;28;20112;-10
2021/11/05 09:54:52;;;;;;;5.10;2.25;;;21.50;45.50;;;25.68;29.60;101464.91;5034996;28;20044;-9
2021/11/05 09:57:19;;;;;;;4.30;1.88;;;21.50;45.50;;;25.70;29.77;101470.16;5016853;28;20042;-10
2021/11/05 09:59:45;;;;;;;4.25;1.77;;;21.60;45.50;;;25.73;29.88;101477.09;5034597;28;20041;-9
2021/11/05 10:02:15;;;;;;;5.03;1.70;;;21.60;45.80;;;25.72;29.86;101472.72;5033210;28;20050;-9
2021/11/05 10:04:42;;;;;;;12.15;2.88;;;21.60;45.70;;;25.76;29.82;101479.56;5034438;28;20049;-9
2021/11/05 10:07:10;;;;;;;3.95;1.80;;;21.70;45.30;;;25.72;29.71;101478.94;5034449;28;20060;-10
2021/11/05 10:09:42;;;;;;;5.43;1.92;;;21.60;45.30;;;25.73;29.70;101482.44;5034845;28;20060;-9
2021/11/05 10:12:19;;;;;;;;;;;21.60;45.50;;;25.83;29.55;101481.69;5034771;28;20094;-9